sensor_id;sensor_type;location;lat;lon;timestamp;pressure;altitude;pressure_sealevel;temperature;humidity
20368;BME280;10343;52.402;9.796;2024-01-30T00:02:30;102283.00;;;6.54;71.14
20368;BME280;10343;52.402;9.796;2024-01-30T00:04:59;102287.28;;;6.50;71.37
20368;BME280;10343;52.402;9.796;2024-01-30T00:07:27;102287.63;;;6.53;70.86
20368;BME280;10343;52.402;9.796;2024-01-30T00:09:55;102283.72;;;6.49;71.47
20368;BME280;10343;52.402;9.796;2024-01-30T00:12:23;102289.19;;;6.49;71.58
20368;BME280;10343;52.402;9.796;2024-01-30T00:14:52;102286.81;;;6.41;72.07
20368;BME280;10343;52.402;9.796;2024-01-30T00:17:21;102281.94;;;6.43;72.10
20368;BME280;10343;52.402;9.796;2024-01-30T00:19:48;102274.34;;;6.45;72.22
20368;BME280;10343;52.402;9.796;2024-01-30T00:22:18;102287.78;;;6.47;71.99
20368;BME280;10343;52.402;9.796;2024-01-30T00:24:46;102279.22;;;6.43;72.00
20368;BME280;10343;52.402;9.796;2024-01-30T00:27:14;102275.66;;;6.43;72.21
20368;BME280;10343;52.402;9.796;2024-01-30T00:29:42;102271.19;;;6.36;72.64
20368;BME280;10343;52.402;9.796;2024-01-30T00:32:10;102270.69;;;6.40;72.40
20368;BME280;10343;52.402;9.796;2024-01-30T00:34:38;102268.81;;;6.40;71.96
20368;BME280;10343;52.402;9.796;2024-01-30T00:37:06;102261.13;;;6.37;72.41
20368;BME280;10343;52.402;9.796;2024-01-30T00:39:35;102264.91;;;6.36;72.33
20368;BME280;10343;52.402;9.796;2024-01-30T00:42:03;102263.25;;;6.35;72.52
20368;BME280;10343;52.402;9.796;2024-01-30T00:44:31;102269.53;;;6.35;72.37
20368;BME280;10343;52.402;9.796;2024-01-30T00:47:02;102268.63;;;6.30;72.61
20368;BME280;10343;52.402;9.796;2024-01-30T00:49:29;102265.28;;;6.28;72.89
20368;BME280;10343;52.402;9.796;2024-01-30T00:51:57;102263.16;;;6.30;72.87
20368;BME280;10343;52.402;9.796;2024-01-30T00:54:25;102270.53;;;6.29;72.90
20368;BME280;10343;52.402;9.796;2024-01-30T00:56:54;102263.75;;;6.32;72.92
20368;BME280;10343;52.402;9.796;2024-01-30T00:59:23;102268.97;;;6.33;72.45
20368;BME280;10343;52.402;9.796;2024-01-30T01:01:51;102274.06;;;6.30;72.92
20368;BME280;10343;52.402;9.796;2024-01-30T01:04:19;102273.59;;;6.33;72.58
20368;BME280;10343;52.402;9.796;2024-01-30T01:06:48;102274.31;;;6.28;72.76
20368;BME280;10343;52.402;9.796;2024-01-30T01:09:16;102278.47;;;6.31;72.85
20368;BME280;10343;52.402;9.796;2024-01-30T01:11:44;102280.69;;;6.34;72.72
20368;BME280;10343;52.402;9.796;2024-01-30T01:14:13;102282.00;;;6.31;72.98
20368;BME280;10343;52.402;9.796;2024-01-30T01:16:41;102285.91;;;6.35;72.54
20368;BME280;10343;52.402;9.796;2024-01-30T01:19:09;102286.88;;;6.29;72.73
20368;BME280;10343;52.402;9.796;2024-01-30T01:21:40;102286.06;;;6.29;72.80
20368;BME280;10343;52.402;9.796;2024-01-30T01:24:08;102286.06;;;6.29;72.99
20368;BME280;10343;52.402;9.796;2024-01-30T01:26:35;102289.47;;;6.36;72.54
20368;BME280;10343;52.402;9.796;2024-01-30T01:29:03;102282.59;;;6.33;72.70
20368;BME280;10343;52.402;9.796;2024-01-30T01:31:37;102276.91;;;6.35;72.90
20368;BME280;10343;52.402;9.796;2024-01-30T01:34:10;102281.75;;;6.33;73.02
20368;BME280;10343;52.402;9.796;2024-01-30T01:36:39;102279.13;;;6.38;72.44
20368;BME280;10343;52.402;9.796;2024-01-30T01:39:07;102273.34;;;6.34;72.90
20368;BME280;10343;52.402;9.796;2024-01-30T01:41:35;102269.19;;;6.32;73.08
20368;BME280;10343;52.402;9.796;2024-01-30T01:44:03;102270.03;;;6.32;73.04
20368;BME280;10343;52.402;9.796;2024-01-30T01:46:33;102269.88;;;6.39;72.66
20368;BME280;10343;52.402;9.796;2024-01-30T01:49:04;102265.97;;;6.35;72.82
20368;BME280;10343;52.402;9.796;2024-01-30T01:51:34;102259.72;;;6.34;72.81
20368;BME280;10343;52.402;9.796;2024-01-30T01:54:04;102263.88;;;6.25;73.01
20368;BME280;10343;52.402;9.796;2024-01-30T01:56:33;102259.25;;;6.26;73.33
20368;BME280;10343;52.402;9.796;2024-01-30T01:59:05;102261.97;;;6.26;73.27
20368;BME280;10343;52.402;9.796;2024-01-30T02:01:34;102255.25;;;6.17;73.52
20368;BME280;10343;52.402;9.796;2024-01-30T02:04:05;102260.69;;;6.28;72.96
20368;BME280;10343;52.402;9.796;2024-01-30T02:06:33;102255.94;;;6.24;73.42
20368;BME280;10343;52.402;9.796;2024-01-30T02:09:01;102244.19;;;6.23;73.54
20368;BME280;10343;52.402;9.796;2024-01-30T02:11:31;102243.72;;;6.26;73.72
20368;BME280;10343;52.402;9.796;2024-01-30T02:14:02;102249.16;;;6.26;74.02
20368;BME280;10343;52.402;9.796;2024-01-30T02:16:30;102233.75;;;6.32;73.63
20368;BME280;10343;52.402;9.796;2024-01-30T02:18:58;102233.34;;;6.40;73.52
20368;BME280;10343;52.402;9.796;2024-01-30T02:21:27;102230.72;;;6.45;73.25
20368;BME280;10343;52.402;9.796;2024-01-30T02:23:58;102224.19;;;6.46;73.19
20368;BME280;10343;52.402;9.796;2024-01-30T02:26:26;102226.91;;;6.46;73.11
20368;BME280;10343;52.402;9.796;2024-01-30T02:28:53;102230.50;;;6.47;73.51
20368;BME280;10343;52.402;9.796;2024-01-30T02:31:21;102224.88;;;6.53;73.07
20368;BME280;10343;52.402;9.796;2024-01-30T02:33:50;102225.44;;;6.55;73.02
20368;BME280;10343;52.402;9.796;2024-01-30T02:36:18;102221.66;;;6.56;73.15
20368;BME280;10343;52.402;9.796;2024-01-30T02:38:47;102213.53;;;6.61;73.00
20368;BME280;10343;52.402;9.796;2024-01-30T02:41:15;102213.47;;;6.56;73.22
20368;BME280;10343;52.402;9.796;2024-01-30T02:43:43;102203.97;;;6.59;73.29
20368;BME280;10343;52.402;9.796;2024-01-30T02:46:11;102209.16;;;6.60;73.16
20368;BME280;10343;52.402;9.796;2024-01-30T02:48:39;102204.97;;;6.70;72.89
20368;BME280;10343;52.402;9.796;2024-01-30T02:51:07;102203.22;;;6.63;73.19
20368;BME280;10343;52.402;9.796;2024-01-30T02:53:35;102200.09;;;6.72;72.74
20368;BME280;10343;52.402;9.796;2024-01-30T02:56:04;102201.81;;;6.78;72.48
20368;BME280;10343;52.402;9.796;2024-01-30T02:58:36;102194.38;;;6.73;72.63
20368;BME280;10343;52.402;9.796;2024-01-30T03:01:04;102192.22;;;6.75;72.30
20368;BME280;10343;52.402;9.796;2024-01-30T03:03:32;102192.56;;;6.79;72.23
20368;BME280;10343;52.402;9.796;2024-01-30T03:06:02;102194.38;;;6.73;72.44
20368;BME280;10343;52.402;9.796;2024-01-30T03:08:29;102191.47;;;6.80;72.28
20368;BME280;10343;52.402;9.796;2024-01-30T03:10:57;102183.16;;;6.70;72.49
20368;BME280;10343;52.402;9.796;2024-01-30T03:13:26;102178.75;;;6.69;72.86
20368;BME280;10343;52.402;9.796;2024-01-30T03:15:54;102184.13;;;6.63;72.89
20368;BME280;10343;52.402;9.796;2024-01-30T03:18:23;102182.47;;;6.62;72.92
20368;BME280;10343;52.402;9.796;2024-01-30T03:20:51;102175.78;;;6.70;72.61
20368;BME280;10343;52.402;9.796;2024-01-30T03:23:19;102175.22;;;6.68;72.72
20368;BME280;10343;52.402;9.796;2024-01-30T03:25:47;102173.69;;;6.60;73.05
20368;BME280;10343;52.402;9.796;2024-01-30T03:28:14;102171.78;;;6.61;73.11
20368;BME280;10343;52.402;9.796;2024-01-30T03:30:44;102174.38;;;6.68;72.83
20368;BME280;10343;52.402;9.796;2024-01-30T03:33:11;102173.19;;;6.63;73.11
20368;BME280;10343;52.402;9.796;2024-01-30T03:35:39;102177.00;;;6.62;72.84
20368;BME280;10343;52.402;9.796;2024-01-30T03:38:07;102171.28;;;6.64;73.01
20368;BME280;10343;52.402;9.796;2024-01-30T03:40:35;102174.38;;;6.68;72.78
20368;BME280;10343;52.402;9.796;2024-01-30T03:43:03;102171.22;;;6.59;72.97
20368;BME280;10343;52.402;9.796;2024-01-30T03:45:31;102169.06;;;6.61;72.91
20368;BME280;10343;52.402;9.796;2024-01-30T03:48:00;102175.09;;;6.63;72.87
20368;BME280;10343;52.402;9.796;2024-01-30T03:50:28;102176.34;;;6.55;73.08
20368;BME280;10343;52.402;9.796;2024-01-30T03:52:56;102163.97;;;6.48;73.44
20368;BME280;10343;52.402;9.796;2024-01-30T03:55:24;102167.91;;;6.57;72.96
20368;BME280;10343;52.402;9.796;2024-01-30T03:57:52;102161.81;;;6.50;73.17
20368;BME280;10343;52.402;9.796;2024-01-30T04:00:20;102165.41;;;6.39;73.82
20368;BME280;10343;52.402;9.796;2024-01-30T04:02:47;102164.34;;;6.40;73.53
20368;BME280;10343;52.402;9.796;2024-01-30T04:05:19;102162.09;;;6.36;73.75
20368;BME280;10343;52.402;9.796;2024-01-30T04:07:46;102162.94;;;6.37;73.39
20368;BME280;10343;52.402;9.796;2024-01-30T04:10:14;102157.16;;;6.33;73.72
20368;BME280;10343;52.402;9.796;2024-01-30T04:12:42;102161.88;;;6.38;73.54
20368;BME280;10343;52.402;9.796;2024-01-30T04:15:10;102156.66;;;6.36;74.02
20368;BME280;10343;52.402;9.796;2024-01-30T04:17:39;102155.34;;;6.39;73.17
20368;BME280;10343;52.402;9.796;2024-01-30T04:20:08;102163.50;;;6.39;73.30
20368;BME280;10343;52.402;9.796;2024-01-30T04:22:39;102159.88;;;6.33;73.10
20368;BME280;10343;52.402;9.796;2024-01-30T04:25:07;102161.66;;;6.28;73.49
20368;BME280;10343;52.402;9.796;2024-01-30T04:27:35;102152.91;;;6.26;73.68
20368;BME280;10343;52.402;9.796;2024-01-30T04:30:03;102170.34;;;6.25;73.38
20368;BME280;10343;52.402;9.796;2024-01-30T04:32:32;102154.09;;;6.30;73.51
20368;BME280;10343;52.402;9.796;2024-01-30T04:35:00;102155.16;;;6.29;73.40
20368;BME280;10343;52.402;9.796;2024-01-30T04:37:29;102162.66;;;6.22;73.58
20368;BME280;10343;52.402;9.796;2024-01-30T04:39:58;102158.28;;;6.21;73.74
20368;BME280;10343;52.402;9.796;2024-01-30T04:42:26;102166.69;;;6.19;73.59
20368;BME280;10343;52.402;9.796;2024-01-30T04:44:54;102165.53;;;6.15;73.94
20368;BME280;10343;52.402;9.796;2024-01-30T04:47:22;102167.53;;;6.20;73.94
20368;BME280;10343;52.402;9.796;2024-01-30T04:49:51;102168.03;;;6.17;73.72
20368;BME280;10343;52.402;9.796;2024-01-30T04:52:19;102159.03;;;6.16;73.70
20368;BME280;10343;52.402;9.796;2024-01-30T04:54:47;102163.41;;;6.17;73.79
20368;BME280;10343;52.402;9.796;2024-01-30T04:57:19;102167.31;;;6.10;74.17
20368;BME280;10343;52.402;9.796;2024-01-30T04:59:50;102158.09;;;6.11;74.15
20368;BME280;10343;52.402;9.796;2024-01-30T05:02:17;102158.09;;;6.11;73.90
20368;BME280;10343;52.402;9.796;2024-01-30T05:04:45;102154.31;;;6.12;73.69
20368;BME280;10343;52.402;9.796;2024-01-30T05:07:13;102156.41;;;6.10;73.71
20368;BME280;10343;52.402;9.796;2024-01-30T05:09:41;102154.09;;;6.01;74.06
20368;BME280;10343;52.402;9.796;2024-01-30T05:12:09;102166.66;;;6.02;74.19
20368;BME280;10343;52.402;9.796;2024-01-30T05:14:41;102151.97;;;6.03;74.31
20368;BME280;10343;52.402;9.796;2024-01-30T05:17:08;102158.81;;;6.06;73.90
20368;BME280;10343;52.402;9.796;2024-01-30T05:19:39;102162.94;;;6.09;73.89
20368;BME280;10343;52.402;9.796;2024-01-30T05:22:07;102168.06;;;6.05;74.29
20368;BME280;10343;52.402;9.796;2024-01-30T05:24:35;102171.13;;;6.09;73.95
20368;BME280;10343;52.402;9.796;2024-01-30T05:27:03;102169.47;;;6.07;74.00
20368;BME280;10343;52.402;9.796;2024-01-30T05:29:31;102167.97;;;6.00;74.38
20368;BME280;10343;52.402;9.796;2024-01-30T05:32:00;102162.03;;;6.03;74.18
20368;BME280;10343;52.402;9.796;2024-01-30T05:34:28;102164.34;;;5.94;74.81
20368;BME280;10343;52.402;9.796;2024-01-30T05:36:56;102162.31;;;5.90;74.71
20368;BME280;10343;52.402;9.796;2024-01-30T05:39:24;102157.31;;;5.98;74.32
20368;BME280;10343;52.402;9.796;2024-01-30T05:41:51;102160.16;;;5.92;74.45
20368;BME280;10343;52.402;9.796;2024-01-30T05:44:19;102157.69;;;5.90;74.74
20368;BME280;10343;52.402;9.796;2024-01-30T05:46:47;102156.00;;;5.89;74.63
20368;BME280;10343;52.402;9.796;2024-01-30T05:49:16;102161.44;;;5.89;74.31
20368;BME280;10343;52.402;9.796;2024-01-30T05:51:44;102158.31;;;5.81;74.80
20368;BME280;10343;52.402;9.796;2024-01-30T05:54:12;102159.13;;;5.81;74.93
20368;BME280;10343;52.402;9.796;2024-01-30T05:56:43;102159.63;;;5.78;74.97
20368;BME280;10343;52.402;9.796;2024-01-30T05:59:11;102163.41;;;5.77;75.59
20368;BME280;10343;52.402;9.796;2024-01-30T06:01:45;102157.06;;;5.88;74.58
20368;BME280;10343;52.402;9.796;2024-01-30T06:04:15;102159.13;;;5.81;75.16
20368;BME280;10343;52.402;9.796;2024-01-30T06:06:43;102159.22;;;5.86;74.99
20368;BME280;10343;52.402;9.796;2024-01-30T06:09:11;102162.31;;;5.90;74.58
20368;BME280;10343;52.402;9.796;2024-01-30T06:11:39;102157.31;;;5.87;74.76
20368;BME280;10343;52.402;9.796;2024-01-30T06:14:07;102154.84;;;5.85;74.83
20368;BME280;10343;52.402;9.796;2024-01-30T06:16:35;102154.13;;;5.90;74.66
20368;BME280;10343;52.402;9.796;2024-01-30T06:19:03;102152.94;;;5.86;74.86
20368;BME280;10343;52.402;9.796;2024-01-30T06:21:32;102143.25;;;5.90;74.50
20368;BME280;10343;52.402;9.796;2024-01-30T06:24:03;102142.63;;;5.88;74.41
20368;BME280;10343;52.402;9.796;2024-01-30T06:26:31;102145.72;;;5.91;74.66
20368;BME280;10343;52.402;9.796;2024-01-30T06:29:00;102139.66;;;5.89;74.86
20368;BME280;10343;52.402;9.796;2024-01-30T06:31:28;102136.34;;;5.87;74.72
20368;BME280;10343;52.402;9.796;2024-01-30T06:33:56;102151.16;;;5.91;74.30
20368;BME280;10343;52.402;9.796;2024-01-30T06:36:24;102137.53;;;5.91;74.75
20368;BME280;10343;52.402;9.796;2024-01-30T06:38:53;102140.97;;;5.87;74.34
20368;BME280;10343;52.402;9.796;2024-01-30T06:41:21;102138.63;;;5.90;74.41
20368;BME280;10343;52.402;9.796;2024-01-30T06:43:49;102136.59;;;5.86;74.42
20368;BME280;10343;52.402;9.796;2024-01-30T06:46:17;102124.78;;;5.80;74.32
20368;BME280;10343;52.402;9.796;2024-01-30T06:48:45;102133.03;;;5.85;74.55
20368;BME280;10343;52.402;9.796;2024-01-30T06:51:13;102134.81;;;5.91;74.24
20368;BME280;10343;52.402;9.796;2024-01-30T06:53:44;102135.88;;;5.90;73.98
20368;BME280;10343;52.402;9.796;2024-01-30T06:56:13;102128.56;;;5.79;74.24
20368;BME280;10343;52.402;9.796;2024-01-30T06:58:41;102138.50;;;5.85;74.21
20368;BME280;10343;52.402;9.796;2024-01-30T07:01:09;102136.59;;;5.86;74.36
20368;BME280;10343;52.402;9.796;2024-01-30T07:03:37;102136.59;;;5.86;74.49
20368;BME280;10343;52.402;9.796;2024-01-30T07:06:05;102137.66;;;5.85;74.36
20368;BME280;10343;52.402;9.796;2024-01-30T07:08:33;102144.44;;;5.82;74.43
20368;BME280;10343;52.402;9.796;2024-01-30T07:11:00;102140.63;;;5.83;74.28
20368;BME280;10343;52.402;9.796;2024-01-30T07:13:32;102139.81;;;5.83;74.48
20368;BME280;10343;52.402;9.796;2024-01-30T07:16:00;102140.97;;;5.87;74.32
20368;BME280;10343;52.402;9.796;2024-01-30T07:18:28;102144.88;;;5.91;74.53
20368;BME280;10343;52.402;9.796;2024-01-30T07:20:56;102140.97;;;5.98;74.01
20368;BME280;10343;52.402;9.796;2024-01-30T07:23:24;102139.06;;;5.99;73.86
20368;BME280;10343;52.402;9.796;2024-01-30T07:25:51;102145.53;;;6.10;73.16
20368;BME280;10343;52.402;9.796;2024-01-30T07:28:19;102152.16;;;6.14;73.29
20368;BME280;10343;52.402;9.796;2024-01-30T07:30:48;102138.44;;;6.25;72.68
20368;BME280;10343;52.402;9.796;2024-01-30T07:33:17;102147.63;;;6.19;72.88
20368;BME280;10343;52.402;9.796;2024-01-30T07:35:45;102134.00;;;6.19;72.71
20368;BME280;10343;52.402;9.796;2024-01-30T07:38:13;102145.31;;;6.28;72.62
20368;BME280;10343;52.402;9.796;2024-01-30T07:40:41;102142.44;;;6.34;72.18
20368;BME280;10343;52.402;9.796;2024-01-30T07:43:08;102135.66;;;6.37;71.86
20368;BME280;10343;52.402;9.796;2024-01-30T07:45:37;102136.66;;;6.31;72.38
20368;BME280;10343;52.402;9.796;2024-01-30T07:48:06;102133.03;;;6.42;72.05
20368;BME280;10343;52.402;9.796;2024-01-30T07:50:34;102134.53;;;6.66;71.16
20368;BME280;10343;52.402;9.796;2024-01-30T07:53:03;102140.81;;;6.67;70.66
20368;BME280;10343;52.402;9.796;2024-01-30T07:55:30;102129.91;;;6.84;70.38
20368;BME280;10343;52.402;9.796;2024-01-30T07:57:59;102146.53;;;6.82;70.46
20368;BME280;10343;52.402;9.796;2024-01-30T08:00:27;102141.19;;;6.92;70.09
20368;BME280;10343;52.402;9.796;2024-01-30T08:02:56;102137.22;;;7.00;69.45
20368;BME280;10343;52.402;9.796;2024-01-30T08:05:25;102137.31;;;6.88;70.02
20368;BME280;10343;52.402;9.796;2024-01-30T08:07:53;102143.09;;;6.92;69.57
20368;BME280;10343;52.402;9.796;2024-01-30T08:10:21;102138.22;;;6.94;69.58
20368;BME280;10343;52.402;9.796;2024-01-30T08:12:49;102142.00;;;7.10;69.03
20368;BME280;10343;52.402;9.796;2024-01-30T08:15:17;102130.91;;;7.16;68.85
20368;BME280;10343;52.402;9.796;2024-01-30T08:17:44;102128.00;;;7.23;68.76
20368;BME280;10343;52.402;9.796;2024-01-30T08:20:12;102126.16;;;7.28;68.51
20368;BME280;10343;52.402;9.796;2024-01-30T08:22:42;102138.22;;;7.33;68.19
20368;BME280;10343;52.402;9.796;2024-01-30T08:25:10;102131.41;;;7.13;68.66
20368;BME280;10343;52.402;9.796;2024-01-30T08:27:38;102126.66;;;7.25;68.16
20368;BME280;10343;52.402;9.796;2024-01-30T08:30:08;102121.41;;;7.19;68.84
20368;BME280;10343;52.402;9.796;2024-01-30T08:32:36;102127.03;;;7.34;68.53
20368;BME280;10343;52.402;9.796;2024-01-30T08:35:05;102124.13;;;7.41;68.21
20368;BME280;10343;52.402;9.796;2024-01-30T08:37:34;102116.75;;;7.63;67.63
20368;BME280;10343;52.402;9.796;2024-01-30T08:40:04;102116.06;;;7.73;66.84
20368;BME280;10343;52.402;9.796;2024-01-30T08:42:32;102127.41;;;7.86;66.67
20368;BME280;10343;52.402;9.796;2024-01-30T08:45:03;102134.88;;;7.91;66.59
20368;BME280;10343;52.402;9.796;2024-01-30T08:47:31;102132.34;;;7.89;65.97
20368;BME280;10343;52.402;9.796;2024-01-30T08:50:02;102129.50;;;8.28;65.13
20368;BME280;10343;52.402;9.796;2024-01-30T08:52:30;102126.19;;;8.53;64.19
20368;BME280;10343;52.402;9.796;2024-01-30T08:55:00;102134.06;;;8.44;64.36
20368;BME280;10343;52.402;9.796;2024-01-30T08:57:29;102123.59;;;8.41;64.26
20368;BME280;10343;52.402;9.796;2024-01-30T08:59:57;102128.69;;;8.60;63.56
20368;BME280;10343;52.402;9.796;2024-01-30T09:02:25;102119.31;;;8.83;63.08
20368;BME280;10343;52.402;9.796;2024-01-30T09:04:53;102124.78;;;8.83;62.69
20368;BME280;10343;52.402;9.796;2024-01-30T09:07:21;102116.41;;;8.99;62.00
20368;BME280;10343;52.402;9.796;2024-01-30T09:09:49;102111.94;;;8.88;62.79
20368;BME280;10343;52.402;9.796;2024-01-30T09:12:16;102114.75;;;8.98;61.99
20368;BME280;10343;52.402;9.796;2024-01-30T09:14:45;102108.19;;;8.99;62.41
20368;BME280;10343;52.402;9.796;2024-01-30T09:17:13;102115.34;;;9.05;61.63
20368;BME280;10343;52.402;9.796;2024-01-30T09:19:41;102113.25;;;9.28;61.00
20368;BME280;10343;52.402;9.796;2024-01-30T09:22:09;102118.25;;;9.36;60.76
20368;BME280;10343;52.402;9.796;2024-01-30T09:24:37;102114.53;;;9.67;60.11
20368;BME280;10343;52.402;9.796;2024-01-30T09:27:05;102114.56;;;9.78;59.79
20368;BME280;10343;52.402;9.796;2024-01-30T09:29:33;102105.91;;;10.21;57.69
20368;BME280;10343;52.402;9.796;2024-01-30T09:32:06;102116.63;;;10.53;57.15
20368;BME280;10343;52.402;9.796;2024-01-30T09:34:35;102120.19;;;10.59;57.01
20368;BME280;10343;52.402;9.796;2024-01-30T09:37:03;102111.13;;;10.79;56.84
20368;BME280;10343;52.402;9.796;2024-01-30T09:39:31;102117.16;;;10.81;55.83
20368;BME280;10343;52.402;9.796;2024-01-30T09:42:02;102118.06;;;11.56;53.64
20368;BME280;10343;52.402;9.796;2024-01-30T09:44:34;102117.66;;;11.88;53.40
20368;BME280;10343;52.402;9.796;2024-01-30T09:47:04;102115.59;;;11.55;53.56
20368;BME280;10343;52.402;9.796;2024-01-30T09:49:32;102114.56;;;12.00;52.27
20368;BME280;10343;52.402;9.796;2024-01-30T09:52:03;102114.88;;;11.93;52.95
20368;BME280;10343;52.402;9.796;2024-01-30T09:54:32;102116.78;;;12.37;51.07
20368;BME280;10343;52.402;9.796;2024-01-30T09:57:03;102118.13;;;12.00;52.48
20368;BME280;10343;52.402;9.796;2024-01-30T09:59:31;102125.56;;;11.30;54.29
20368;BME280;10343;52.402;9.796;2024-01-30T10:01:59;102118.31;;;11.60;53.94
20368;BME280;10343;52.402;9.796;2024-01-30T10:04:29;102119.91;;;10.76;56.06
20368;BME280;10343;52.402;9.796;2024-01-30T10:06:57;102128.13;;;11.01;56.30
20368;BME280;10343;52.402;9.796;2024-01-30T10:09:26;102110.03;;;10.70;56.07
20368;BME280;10343;52.402;9.796;2024-01-30T10:11:54;102114.41;;;10.86;55.96
20368;BME280;10343;52.402;9.796;2024-01-30T10:14:21;102115.72;;;11.19;54.81
20368;BME280;10343;52.402;9.796;2024-01-30T10:16:49;102112.75;;;11.75;53.37
20368;BME280;10343;52.402;9.796;2024-01-30T10:19:17;102108.19;;;11.45;54.71
20368;BME280;10343;52.402;9.796;2024-01-30T10:21:47;102107.41;;;12.38;51.86
20368;BME280;10343;52.402;9.796;2024-01-30T10:24:15;102104.34;;;12.05;52.33
20368;BME280;10343;52.402;9.796;2024-01-30T10:26:44;102097.91;;;12.54;50.64
20368;BME280;10343;52.402;9.796;2024-01-30T10:29:11;102090.56;;;13.02;49.82
20368;BME280;10343;52.402;9.796;2024-01-30T10:31:39;102092.00;;;13.48;48.99
20368;BME280;10343;52.402;9.796;2024-01-30T10:34:07;102093.19;;;13.60;47.29
20368;BME280;10343;52.402;9.796;2024-01-30T10:36:50;102083.13;;;13.27;48.75
20368;BME280;10343;52.402;9.796;2024-01-30T10:39:23;102089.09;;;12.57;51.09
20368;BME280;10343;52.402;9.796;2024-01-30T10:41:54;102088.88;;;12.49;51.02
20368;BME280;10343;52.402;9.796;2024-01-30T10:44:23;102079.41;;;12.89;50.67
20368;BME280;10343;52.402;9.796;2024-01-30T10:46:58;102071.59;;;12.43;51.61
20368;BME280;10343;52.402;9.796;2024-01-30T10:49:28;102084.44;;;12.53;51.82
20368;BME280;10343;52.402;9.796;2024-01-30T10:51:58;102082.75;;;12.57;51.50
20368;BME280;10343;52.402;9.796;2024-01-30T10:54:26;102081.16;;;12.80;51.33
20368;BME280;10343;52.402;9.796;2024-01-30T10:56:55;102085.81;;;12.50;51.70
20368;BME280;10343;52.402;9.796;2024-01-30T10:59:25;102092.13;;;12.22;52.38
20368;BME280;10343;52.402;9.796;2024-01-30T11:01:54;102089.63;;;11.81;53.63
20368;BME280;10343;52.402;9.796;2024-01-30T11:04:23;102089.66;;;11.66;54.41
20368;BME280;10343;52.402;9.796;2024-01-30T11:06:51;102083.06;;;10.92;56.32
20368;BME280;10343;52.402;9.796;2024-01-30T11:09:22;102087.09;;;11.35;55.86
20368;BME280;10343;52.402;9.796;2024-01-30T11:11:50;102087.59;;;11.42;55.47
20368;BME280;10343;52.402;9.796;2024-01-30T11:14:24;102083.66;;;11.59;54.83
20368;BME280;10343;52.402;9.796;2024-01-30T11:16:53;102076.56;;;11.47;55.83
20368;BME280;10343;52.402;9.796;2024-01-30T11:19:24;102066.84;;;11.65;54.78
20368;BME280;10343;52.402;9.796;2024-01-30T11:21:53;102065.53;;;10.83;57.69
20368;BME280;10343;52.402;9.796;2024-01-30T11:24:24;102065.44;;;11.08;57.15
20368;BME280;10343;52.402;9.796;2024-01-30T11:26:56;102073.22;;;10.86;58.25
20368;BME280;10343;52.402;9.796;2024-01-30T11:29:24;102077.34;;;10.78;58.56
20368;BME280;10343;52.402;9.796;2024-01-30T11:31:53;102078.91;;;11.10;57.20
20368;BME280;10343;52.402;9.796;2024-01-30T11:34:21;102075.91;;;11.06;56.93
20368;BME280;10343;52.402;9.796;2024-01-30T11:36:52;102075.13;;;10.90;57.53
20368;BME280;10343;52.402;9.796;2024-01-30T11:39:26;102069.94;;;10.79;58.62
20368;BME280;10343;52.402;9.796;2024-01-30T11:41:55;102070.22;;;10.72;58.83
20368;BME280;10343;52.402;9.796;2024-01-30T11:44:23;102060.28;;;10.86;58.52
20368;BME280;10343;52.402;9.796;2024-01-30T11:46:51;102054.47;;;11.08;57.93
20368;BME280;10343;52.402;9.796;2024-01-30T11:49:19;102057.75;;;11.10;58.05
20368;BME280;10343;52.402;9.796;2024-01-30T11:51:48;102060.41;;;11.31;57.22
20368;BME280;10343;52.402;9.796;2024-01-30T11:54:16;102053.84;;;11.27;57.12
20368;BME280;10343;52.402;9.796;2024-01-30T11:56:45;102055.19;;;11.34;57.49
20368;BME280;10343;52.402;9.796;2024-01-30T11:59:13;102039.66;;;11.59;56.55
20368;BME280;10343;52.402;9.796;2024-01-30T12:01:41;102023.63;;;12.73;54.11
20368;BME280;10343;52.402;9.796;2024-01-30T12:04:09;102020.16;;;13.10;52.11
20368;BME280;10343;52.402;9.796;2024-01-30T12:06:38;102013.50;;;13.16;51.86
20368;BME280;10343;52.402;9.796;2024-01-30T12:09:06;102013.56;;;13.35;51.48
20368;BME280;10343;52.402;9.796;2024-01-30T12:11:43;102011.84;;;12.91;52.23
20368;BME280;10343;52.402;9.796;2024-01-30T12:14:13;102009.25;;;13.48;50.94
20368;BME280;10343;52.402;9.796;2024-01-30T12:16:42;102014.16;;;13.32;51.03
20368;BME280;10343;52.402;9.796;2024-01-30T12:19:10;102001.34;;;13.60;51.13
20368;BME280;10343;52.402;9.796;2024-01-30T12:21:38;102014.75;;;14.04;49.35
20368;BME280;10343;52.402;9.796;2024-01-30T12:24:06;102021.25;;;14.27;48.81
20368;BME280;10343;52.402;9.796;2024-01-30T12:26:34;102037.22;;;14.63;47.92
20368;BME280;10343;52.402;9.796;2024-01-30T12:29:04;102037.88;;;15.15;47.13
20368;BME280;10343;52.402;9.796;2024-01-30T12:31:33;102042.59;;;16.14;45.16
20368;BME280;10343;52.402;9.796;2024-01-30T12:34:01;102039.75;;;16.72;43.00
20368;BME280;10343;52.402;9.796;2024-01-30T12:36:29;102041.25;;;16.56;42.51
20368;BME280;10343;52.402;9.796;2024-01-30T12:38:58;102043.84;;;16.52;43.29
20368;BME280;10343;52.402;9.796;2024-01-30T12:41:26;102041.00;;;16.97;42.74
20368;BME280;10343;52.402;9.796;2024-01-30T12:43:57;102044.34;;;16.32;43.80
20368;BME280;10343;52.402;9.796;2024-01-30T12:46:27;102030.44;;;16.46;43.14
20368;BME280;10343;52.402;9.796;2024-01-30T12:48:57;102024.63;;;16.56;43.47
20368;BME280;10343;52.402;9.796;2024-01-30T12:51:25;102037.00;;;15.55;45.67
20368;BME280;10343;52.402;9.796;2024-01-30T12:53:54;102038.78;;;15.37;46.63
20368;BME280;10343;52.402;9.796;2024-01-30T12:56:22;102045.44;;;14.81;47.73
20368;BME280;10343;52.402;9.796;2024-01-30T12:58:49;102045.25;;;14.78;48.19
20368;BME280;10343;52.402;9.796;2024-01-30T13:01:21;102046.41;;;14.91;48.06
20368;BME280;10343;52.402;9.796;2024-01-30T13:03:49;102045.19;;;14.50;48.97
20368;BME280;10343;52.402;9.796;2024-01-30T13:06:18;102057.00;;;14.70;48.83